Extreme weather reports worldwide

High gusts

Station
 
Location
 
Name
 
Wind
Knots
Gust
Knots
Vis
SM
Temp/Dew
C
Baro
inHg
METAR
 
KXIF 12 83 10 21/17 29.65 KXIF 272058Z AUTO 25012G83KT 10SM CLR 22/17 A2965 RMK AO2 PK WND 23083/47 LTG DSNT E SLP039 60002 T02160173 58001 $
AIA KAIA Alliance, US Alliance Municipal Airport 21 54 10 26/2 29.79 KAIA 272133Z AUTO 16021G54KT 10SM -RA SQ FEW055 BKN095 BKN120 27/02 A2979 RMK AO2 PK WND 25059/2111 WSHFT 2048 LTG DSNT E-SW RAB15 PRESFR P0000 T02670022
ACZ OIZB IR Zabol Airport 31 43 3.11 24/8 29.76 OIZB 272100Z 34031G43KT 5000 SA NSC 24/08 Q1008
KMLF Milford, US Milford Municipal-Ben and Judy Briscoe Field 25 42 10 31/-5 29.96 KMLF 272052Z AUTO 20025G42KT 10SM CLR 32/M05 A2996 RMK AO2 PK WND 20042/2047 SLP071 T03171050 56022
ISB OPIS Islamabad, PK Islamabad International Airport 18 42 1.12 22/17 29.59 OPIS 272130Z 31018G42KT 1800 TSRA FEW030CB SCT040 OVC100 22/17 Q1002 TEMPO 27020G50KT 1000 TSRA FEW030CB

Station
 
Location
 
Name
 
Wind
Knots
Gust
Knots
Vis
SM
Temp/Dew
C
Baro
inHg
METAR
 
BFF KBFF Scottsbluff, US Western Neb. Rgnl/William B. Heilig Airport 14 42 9 27/3 29.82 KBFF 272135Z AUTO 26014G42KT 200V350 9SM -TSRA FEW070 BKN090 BKN110 28/04 A2982 RMK AO2 PK WND 27042/2133 LTG DSNT E-SW RAB24 TSB29 P0000 T02780039
LAR KLAR Laramie, US Laramie Regional Airport 30 41 10 25/-3 30.03 KLAR 272053Z AUTO 27030G41KT 10SM FEW110 26/M04 A3003 RMK AO2 PK WND 27041/2052 LTG DSNT NW RAE09 SLP064 P0000 60000 T02561039 58009
WPR SCFM Porvenir, CL Capitan Fuentes Martinez Airport Airport 30 40 6.21 5/0 29.76 SCFM 272100Z 20030G40KT 9999 SHRA BKN040 05/00 Q1008
LUR PALU Cape Lisburne, US Cape Lisburne LRRS Airport 34 38 10 2/0 29.88 PALU 272055Z AUTO 22034G38KT 10SM BKN110 02/00 A2988 RMK AO2 PK WND 23042/2010 SLP119 T00221002 50002
WAA PAIW Wales, US Wales Airport 32 38 10 1/0 30.02 PAIW 272056Z AUTO 20032G38KT 10SM OVC009 02/01 A3002 RMK AO2 PK WND 19039/2025 SLP167 6//// T00170006 51007 FZRANO PNO $
KCPW 27 38 10 13/-9 KCPW 272135Z AUTO 22027G38KT 10SM CLR 13/M09 RMK AO2
COS KCOS Colorado Springs, US City of Colorado Springs Municipal Airport 30 38 10 28/-6 30.00 KCOS 272138Z 24030G38KT 10SM SCT110 BKN230 29/M06 A3000 RMK AO2 PK WND 23038/2137 VIRGA SW-NW T02891061
CEZ KCEZ Cortez, US Cortez Municipal Airport 17 37 7 31/-8 30.09 KCEZ 272053Z AUTO 23017G37KT 200V270 7SM CLR 31/M08 A3009 RMK AO2 PK WND 23037/2046 SLP119 T03111083 58020
KMWN 24 37 0.06 11/11 KMWN 272055Z 22024G37KT 1/16SM -SHRA FG VV000 11/11 RMK
CWER 32 37 / CWER 272100Z AUTO 06032G37KT RMK AO1 PK WND 05037/2054
RWL KRWL Rawlins, US Rawlins Municipal Airport/Harvey Field 24 36 10 25/0 30.05 KRWL 272053Z AUTO 26024G36KT 10SM FEW090 25/00 A3005 RMK AO2 PK WND 30042/2029 RAB30E40 SLP082 P0000 60000 T02500000 57002
K0CO 17 36 8/-6 30.47 K0CO 272135Z AUTO 25017G36KT 221V281 CLR 08/M06 A3047 RMK AO2 PWINO
HUX MMBT Huatulco, MX Bahías de Huatulco International Airport 20 35 10 30/22 29.86 MMBT 272042Z 09020G35KT 10SM FEW030 SCT120 OVC220 30/22 A2986 RMK 8/138
XPR KIEN Pine Ridge, US Pine Ridge Airport 17 35 10 32/3 29.70 KIEN 272052Z AUTO 22017G35KT 10SM CLR 32/03 A2970 RMK AO2 PK WND 21035/2048 LTG DSNT S SLP032 T03220033 56031
CPR KCPR Casper, US Casper-Natrona County International Airport 28 35 10 26/1 29.87 KCPR 272053Z 24028G35KT 10SM CLR 27/02 A2987 RMK AO2 PK WND 28038/2002 SLP063 60000 T02670017 50001
K2WX 21 35 28/8 29.63 K2WX 272056Z AUTO 17021G35KT 29/08 A2963 RMK AO1 PK WND 17037/2035 SLP013 T02890083 56022
CWLY 18 35 9 16/4 29.77 CWLY 272100Z AUTO 19018G35KT 9SM SCT096 16/04 A2977 RMK SLP082 DENSITY ALT 1300FT
YKA CYKA Kamloops, CA Kamloops Airport 22 35 40 19/-1 29.71 CYKA 272100Z 21022G35KT 40SM FEW090 SCT220 19/M01 A2971 RMK CU2CI3 SLP063 DENSITY ALT 2100FT
AVN LFMV Avignon/Caumont, FR Avignon-Caumont Airport 24 35 6.21 23/11 29.97 LFMV 272130Z AUTO 34024G35KT CAVOK 23/11 Q1015
DGW KDGW Douglas, US Converse County Airport 20 34 10 30/3 29.83 KDGW 272053Z AUTO 28020G34KT 10SM CLR 31/03 A2983 RMK AO2 PK WND 28037/2025 SLP037 T03060033 56013
KD07 25 34 28/7 29.67 KD07 272056Z AUTO 14025G34KT 29/08 A2967 RMK AO1 PK WND 14034/2054 SLP035 T02890078 56034
KDUB 23 34 10 21/-4 30.00 KDUB 272118Z AUTO 28023G34KT 10SM SCT090 21/M04 A3000 RMK AO2
FCN ETMN Cuxhaven, DE Nordholz Naval Airbase 22 34 6.21 11/5 29.97 ETMN 272120Z 30022G34KT 9999 SCT025 SCT045 11/05 Q1015 BLU+
KEHY 23 34 10 22/-8 30.04 KEHY 272130Z AUTO 27023G34KT 10SM SCT090 22/M08 A3004 RMK AO2 PWINO
XOG LFMO Orange/Caritat, FR Orange-Caritat (BA 115) Air Base 21 34 6.21 22/11 30.03 LFMO 272130Z AUTO 35021G34KT CAVOK 22/11 Q1017 NOSIG
K6S0 27 34 10 23/3 29.84 K6S0 272135Z AUTO 28027G34KT 10SM CLR 23/03 A2984 RMK A01
AMA KAMA Amarillo, US Rick Husband Amarillo International Airport 20 33 10 33/8 29.98 KAMA 272053Z 20020G33KT 10SM CLR 33/09 A2998 RMK AO2 PK WND 21033/2009 SLP096 T03330089 58025
PHP KPHP Philip, US Philip Airport 18 33 10 32/8 29.66 KPHP 272055Z AUTO 14018G33KT 10SM CLR 32/08 A2966 RMK AO2 PK WND 15035/2013 SLP026 T03220083 56040
K2V6 19 33 10 29/0 29.84 K2V6 272139Z AUTO 07019G33KT 030V090 10SM SCT048 SCT065 SCT085 29/00 A2984 RMK AO2
RIW KRIW Riverton, US Riverton Regional Airport 17 32 10 26/-2 29.91 KRIW 272053Z AUTO 28017G32KT 10SM CLR 27/M02 A2991 RMK AO2 PK WND 28032/2047 SLP069 T02671022 58003
RKS KRKS Rock Springs, US Southwest Wyoming Regional Airport 17 32 10 24/-1 30.07 KRKS 272054Z AUTO 26017G32KT 10SM CLR 24/M01 A3007 RMK AO2 PK WND 25032/2049 SLP098 60000 T02441011 58016
K1AM 21 32 21/0 29.79 K1AM 272058Z AUTO 26021G32KT M M CLR 21/01 A2979 RMK AO2 PK WND 23034/04 SLP019 T02120008 58005 PWINO $
YQL CYQL Lethbridge, CA Lethbridge County Airport 24 32 60 23/3 29.65 CYQL 272100Z 25024G32KT 60SM SCT080 SCT190 BKN290 23/03 A2965 RMK CU3AC1CI3 SLP036 DENSITY ALT 5000FT
KBVU 14 32 10 38/-4 29.80 KBVU 272135Z AUTO 21014G32KT 160V250 10SM CLR 38/M04 A2980 RMK AO2
JDN KJDN Jordan, US Jordan Airport 19 31 23/10 29.71 KJDN 272048Z AUTO 30019G31KT 24/11 A2971 RMK AO1 PK WND 29031/2039 SLP050 T02390106 51009
IGM KIGM Kingman, US Kingman Airport 21 31 10 34/0 29.99 KIGM 272051Z AUTO 22021G31KT 10SM CLR 34/01 A2999 RMK AO2 PK WND 23034/2021 SLP080 T03440006 58013
LBB KLBB Lubbock, US Lubbock Preston Smith International Airport 16 31 10 33/6 30.01 KLBB 272053Z 19016G31KT 10SM CLR 34/06 A3001 RMK AO2 PK WND 20031/2048 SLP109 PTCHY BLDU ALQDS T03390061 58030
LVM KLVM Livingston, US Mission Field 22 31 10 22/4 29.84 KLVM 272053Z AUTO 29022G31KT 10SM CLR 23/04 A2984 RMK AO2 PK WND 27036/2006 SLP064 T02280044 58008
TCS KTCS Truth Or Consequences, US Truth Or Consequences Municipal Airport 15 31 10 36/-12 30.01 KTCS 272053Z AUTO 21015G31KT 10SM CLR 37/M13 A3001 RMK AO2 PK WND 16032/1954 WSHFT 2032 SLP064 T03671128 56023
LWT KLWT Lewistown, US Lewistown Municipal Airport 14 31 10 20/2 29.79 KLWT 272054Z AUTO 30014G31KT 10SM OVC085 21/03 A2979 RMK AO2 PK WND 29031/2051 SLP055 T02060028 58005
KAAT Alturas, US Alturas Municipal Airport 15 31 10 20/1 29.98 KAAT 272055Z AUTO 24015G31KT 10SM FEW070 21/01 A2998 RMK AO2 PK WND 23031/2049 SLP124 T02060011 58013 TSNO
KNKT Cherry Point, US Cherry Point MCAS /Cunningham Field/ 19 31 10 24/18 29.93 KNKT 272056Z 21019G31KT 10SM SCT110 24/19 A2993 RMK AO2 PK WND 20031/2053 SLP131 T02440189 55005
EDW KEDW Edwards, US Edwards Air Force Base 24 31 70 31/-4 29.91 KEDW 272058Z 25024G31KT 70SM BKN250 31/M04 A2991 RMK AO2A PK WND 23033/42 SLP105 T03111041 57013
ZFN CZFN Tulita, CA Tulita Airport 19 31 20 14/4 29.73 CZFN 272100Z 29019G31KT 20SM SCT050 BKN100 BKN160 14/04 A2973 RMK CU4AC2AS1 TCU ASOCTD SLP075 DENSITY ALT 500FT
WPC CZPC Pincher Creek, CA Pincher Creek Airport 23 31 9 18/4 29.72 CZPC 272100Z AUTO 25023G31KT 9SM SCT055 BKN069 18/04 A2972 RMK SLP061 DENSITY ALT 5400FT